Time;durP1;ratioP1;P1;durP2;ratioP2;P2;SDS_P1;SDS_P2;PMS_P1;PMS_P2;Temp;Humidity;BMP_temperature;BMP_pressure;BME280_temperature;BME280_humidity;BME280_pressure;Samples;Min_cycle;Max_cycle;Signal;HPM_P1;HPM_P2
2021/07/06 00:02:23;;;;;;;511.88;427.10;;;;;;;;;;4938327;29;20035;-78
2021/07/06 00:04:55;;;;;;;505.67;411.20;;;;;;;;;;4944150;29;20418;-78
2021/07/06 00:07:22;;;;;;;509.65;420.95;;;;;;;;;;4946920;29;20604;-80
2021/07/06 00:10:06;;;;;;;508.40;422.13;;;;;;;;;;4945625;29;20090;-78
2021/07/06 00:12:32;;;;;;;509.83;422.85;;;;;;;;;;4937762;28;20019;-79
2021/07/06 00:14:58;;;;;;;507.00;415.30;;;;;;;;;;4934958;29;20032;-77
2021/07/06 00:17:24;;;;;;;517.08;425.50;;;;;;;;;;4936875;29;20054;-80
2021/07/06 00:19:50;;;;;;;521.78;425.25;;;;;;;;;;4938497;29;20031;-78
2021/07/06 00:22:17;;;;;;;515.08;418.27;;;;;;;;;;4938894;29;20024;-78
2021/07/06 00:24:43;;;;;;;515.17;424.05;;;;;;;;;;4935312;29;20030;-79
2021/07/06 00:27:09;;;;;;;516.78;429.77;;;;;;;;;;4935704;29;20024;-78
2021/07/06 00:29:35;;;;;;;522.72;435.20;;;;;;;;;;4945477;29;20499;-79
2021/07/06 00:32:01;;;;;;;518.85;432.75;;;;;;;;;;4938512;29;20386;-78
2021/07/06 00:34:31;;;;;;;512.13;421.85;;;;;;;;;;4938455;29;20027;-80
2021/07/06 00:36:56;;;;;;;518.17;430.38;;;;;;;;;;4949030;29;20050;-80
2021/07/06 00:39:22;;;;;;;524.63;440.98;;;;;;;;;;4938147;29;20031;-81
2021/07/06 00:41:48;;;;;;;512.70;419.85;;;;;;;;;;4934338;29;20087;-77
2021/07/06 00:44:19;;;;;;;511.27;424.65;;;;;;;;;;4938293;29;20065;-77
2021/07/06 00:46:45;;;;;;;512.40;429.85;;;;;;;;;;4934281;29;20028;-78
2021/07/06 00:49:12;;;;;;;509.80;425.20;;;;;;;;;;4937903;29;20027;-79
2021/07/06 00:51:38;;;;;;;508.63;420.55;;;;;;;;;;4938117;29;20467;-78
2021/07/06 00:54:05;;;;;;;510.60;425.38;;;;;;;;;;4941995;29;20019;-77
2021/07/06 00:56:31;;;;;;;512.55;429.55;;;;;;;;;;4934729;29;20142;-79
2021/07/06 00:59:15;;;;;;;511.13;425.98;;;;;;;;;;4949151;29;20031;-79
2021/07/06 01:01:41;;;;;;;511.45;423.88;;;;;;;;;;4952542;29;20496;-79
2021/07/06 01:04:07;;;;;;;513.65;431.90;;;;;;;;;;4928065;29;20067;-78
2021/07/06 01:06:33;;;;;;;514.25;429.15;;;;;;;;;;4943105;29;20558;-79
2021/07/06 01:09:00;;;;;;;514.88;422.27;;;;;;;;;;4951132;29;20039;-82
2021/07/06 01:11:26;;;;;;;520.33;432.63;;;;;;;;;;4936090;29;20031;-81
2021/07/06 01:13:52;;;;;;;517.47;433.63;;;;;;;;;;4937715;29;20042;-81
2021/07/06 01:16:18;;;;;;;516.85;428.60;;;;;;;;;;4954376;29;20027;-80
2021/07/06 01:18:44;;;;;;;516.95;428.60;;;;;;;;;;4933315;29;20027;-80
2021/07/06 01:21:11;;;;;;;523.03;437.05;;;;;;;;;;4929142;29;20023;-82
2021/07/06 01:23:38;;;;;;;515.78;427.63;;;;;;;;;;4937817;29;20032;-78
2021/07/06 01:26:10;;;;;;;512.65;423.08;;;;;;;;;;4952299;28;20024;-78
2021/07/06 01:28:36;;;;;;;511.77;427.13;;;;;;;;;;4931730;29;20074;-80
2021/07/06 01:31:02;;;;;;;511.58;428.20;;;;;;;;;;4954371;29;20047;-79
2021/07/06 01:33:32;;;;;;;514.00;431.73;;;;;;;;;;4937309;29;20028;-80
2021/07/06 01:36:02;;;;;;;511.00;422.48;;;;;;;;;;4944432;29;20027;-79
2021/07/06 01:38:29;;;;;;;513.00;427.98;;;;;;;;;;4926524;29;20480;-80
2021/07/06 01:40:55;;;;;;;517.38;431.40;;;;;;;;;;4944594;28;20093;-81
2021/07/06 01:43:22;;;;;;;525.05;438.50;;;;;;;;;;4935754;29;20093;-79
2021/07/06 01:45:48;;;;;;;517.72;430.83;;;;;;;;;;4954382;29;20023;-80
2021/07/06 01:48:14;;;;;;;514.60;425.05;;;;;;;;;;4933867;29;20027;-80
2021/07/06 01:50:41;;;;;;;515.15;429.10;;;;;;;;;;4936594;29;20027;-80
2021/07/06 01:53:12;;;;;;;518.17;434.08;;;;;;;;;;4938879;29;20094;-79
2021/07/06 01:55:38;;;;;;;;;;;;;;;;;;4929495;29;20023;-78
2021/07/06 01:58:04;;;;;;;514.45;420.73;;;;;;;;;;4948361;29;19968;-77
2021/07/06 02:00:31;;;;;;;513.60;428.23;;;;;;;;;;4948442;29;20037;-79
2021/07/06 02:03:01;;;;;;;510.50;428.52;;;;;;;;;;4937435;29;20442;-80
2021/07/06 02:05:32;;;;;;;507.73;426.48;;;;;;;;;;4947517;29;20036;-79
2021/07/06 02:07:58;;;;;;;500.95;420.77;;;;;;;;;;4935250;29;20031;-80
2021/07/06 02:10:26;;;;;;;502.00;420.58;;;;;;;;;;4934557;28;20035;-80
2021/07/06 02:12:52;;;;;;;506.73;427.35;;;;;;;;;;4936555;28;20031;-78
2021/07/06 02:18:22;;;;;;;504.17;418.65;;;;;;;;;;4942876;29;20608;-79
2021/07/06 02:20:56;;;;;;;507.40;425.13;;;;;;;;;;4947523;29;20085;-82
2021/07/06 02:23:23;;;;;;;507.20;427.75;;;;;;;;;;4937481;29;20028;-81
2021/07/06 02:25:49;;;;;;;508.60;430.35;;;;;;;;;;4938102;28;20051;-80
2021/07/06 02:31:24;;;;;;;505.13;417.35;;;;;;;;;;4969245;28;20151;-81
2021/07/06 02:33:50;;;;;;;506.15;418.02;;;;;;;;;;4940119;29;20035;-80
2021/07/06 02:36:16;;;;;;;510.58;427.35;;;;;;;;;;4947550;28;20024;-83
2021/07/06 02:38:42;;;;;;;514.95;434.45;;;;;;;;;;4947402;29;20035;-80
2021/07/06 02:41:08;;;;;;;513.33;429.10;;;;;;;;;;4951640;29;20095;-83
2021/07/06 02:43:34;;;;;;;515.60;435.73;;;;;;;;;;4974236;28;20033;-80
2021/07/06 02:46:00;;;;;;;512.72;429.63;;;;;;;;;;4938995;29;20055;-78
2021/07/06 02:48:26;;;;;;;511.63;426.02;;;;;;;;;;4956282;29;20054;-78
2021/07/06 02:51:17;;;;;;;512.67;427.98;;;;;;;;;;4940082;29;20023;-78
2021/07/06 02:53:43;;;;;;;512.38;427.85;;;;;;;;;;4945804;29;20027;-78
2021/07/06 02:56:09;;;;;;;510.10;431.88;;;;;;;;;;4955926;29;20051;-76
2021/07/06 02:58:35;;;;;;;509.77;426.33;;;;;;;;;;4939145;29;20031;-78
2021/07/06 03:01:01;;;;;;;510.20;427.73;;;;;;;;;;4937757;29;20066;-76
2021/07/06 03:03:32;;;;;;;508.15;421.58;;;;;;;;;;4955649;29;20087;-77
2021/07/06 03:05:58;;;;;;;509.75;423.90;;;;;;;;;;4935377;29;20035;-78
2021/07/06 03:08:25;;;;;;;509.83;423.08;;;;;;;;;;4931882;29;20019;-75
2021/07/06 03:10:51;;;;;;;511.95;427.05;;;;;;;;;;4931066;29;20086;-76
2021/07/06 03:13:17;;;;;;;509.23;420.70;;;;;;;;;;4939864;29;20460;-77
2021/07/06 03:15:43;;;;;;;510.20;423.27;;;;;;;;;;4939476;29;20027;-76
2021/07/06 03:18:10;;;;;;;509.33;423.58;;;;;;;;;;4956629;28;20078;-77
2021/07/06 03:20:36;;;;;;;510.08;425.58;;;;;;;;;;4955164;29;20020;-77
2021/07/06 03:23:03;;;;;;;507.55;418.20;;;;;;;;;;4936249;29;20075;-77
2021/07/06 03:28:32;;;;;;;509.13;421.23;;;;;;;;;;4946362;29;20098;-78
2021/07/06 03:30:58;;;;;;;506.45;418.50;;;;;;;;;;4934996;29;20054;-78
2021/07/06 03:33:25;;;;;;;507.58;423.00;;;;;;;;;;4952754;28;20060;-77
2021/07/06 03:35:51;;;;;;;509.00;424.95;;;;;;;;;;4939769;29;20047;-76
2021/07/06 03:44:24;;;;;;;510.67;417.52;;;;;;;;;;4942505;29;20506;-77
2021/07/06 03:46:50;;;;;;;510.60;421.63;;;;;;;;;;4929804;29;20551;-77
2021/07/06 03:49:16;;;;;;;509.35;419.23;;;;;;;;;;4955871;28;20114;-77
2021/07/06 03:51:42;;;;;;;505.90;413.08;;;;;;;;;;4955818;29;20046;-78
2021/07/06 03:54:08;;;;;;;510.58;425.30;;;;;;;;;;4956616;29;20030;-77
2021/07/06 03:56:34;;;;;;;508.73;422.85;;;;;;;;;;4941682;29;20455;-77
2021/07/06 03:58:59;;;;;;;509.70;423.65;;;;;;;;;;4937550;29;20113;-77
2021/07/06 04:01:25;;;;;;;508.05;419.67;;;;;;;;;;4951916;29;20029;-78
2021/07/06 04:03:51;;;;;;;507.90;421.55;;;;;;;;;;4945835;29;20031;-76
2021/07/06 04:06:17;;;;;;;506.05;416.80;;;;;;;;;;4940475;28;20023;-78
2021/07/06 04:08:43;;;;;;;507.10;423.70;;;;;;;;;;4935165;29;20480;-77
2021/07/06 04:11:31;;;;;;;505.83;421.40;;;;;;;;;;4931272;29;20873;-84
2021/07/06 04:13:57;;;;;;;505.23;416.23;;;;;;;;;;4938861;29;20042;-76
2021/07/06 04:16:23;;;;;;;506.65;422.92;;;;;;;;;;4920501;29;20703;-76
2021/07/06 04:18:49;;;;;;;505.58;415.95;;;;;;;;;;4920034;29;20031;-80
2021/07/06 04:21:15;;;;;;;506.13;417.00;;;;;;;;;;4949297;29;20103;-76
2021/07/06 04:23:42;;;;;;;507.38;419.35;;;;;;;;;;4938733;29;20467;-77
2021/07/06 04:26:08;;;;;;;506.33;419.17;;;;;;;;;;4955976;29;20030;-79
2021/07/06 04:28:35;;;;;;;506.52;419.75;;;;;;;;;;4938495;29;20019;-83
2021/07/06 04:31:01;;;;;;;504.48;414.92;;;;;;;;;;4938839;29;20070;-76
2021/07/06 04:33:27;;;;;;;504.52;418.77;;;;;;;;;;4938482;29;20019;-80
2021/07/06 04:35:53;;;;;;;503.27;418.98;;;;;;;;;;4929890;29;20042;-77
2021/07/06 04:38:19;;;;;;;504.23;416.98;;;;;;;;;;4940352;29;20038;-78
2021/07/06 04:40:45;;;;;;;504.67;422.90;;;;;;;;;;4953244;29;20075;-76
2021/07/06 04:43:33;;;;;;;503.40;418.65;;;;;;;;;;4937001;29;20027;-77
2021/07/06 04:45:59;;;;;;;504.90;419.05;;;;;;;;;;4932283;29;20031;-81
2021/07/06 04:48:26;;;;;;;503.70;421.23;;;;;;;;;;4940227;28;20180;-78
2021/07/06 04:50:52;;;;;;;503.20;413.33;;;;;;;;;;4940997;29;20031;-78
2021/07/06 04:53:18;;;;;;;504.88;424.35;;;;;;;;;;4938302;29;20143;-77
2021/07/06 04:55:49;;;;;;;505.80;428.98;;;;;;;;;;4938045;29;20034;-78
2021/07/06 04:58:15;;;;;;;503.10;421.55;;;;;;;;;;4941962;28;20045;-77
2021/07/06 05:00:43;;;;;;;506.67;431.17;;;;;;;;;;4940464;28;20390;-78
2021/07/06 05:03:10;;;;;;;505.30;428.13;;;;;;;;;;4938178;29;20031;-79
2021/07/06 05:05:39;;;;;;;508.17;432.42;;;;;;;;;;4938101;29;20031;-77
2021/07/06 05:08:05;;;;;;;510.23;435.48;;;;;;;;;;4930001;29;20019;-76
2021/07/06 05:10:34;;;;;;;511.38;440.08;;;;;;;;;;4930099;29;20034;-78
2021/07/06 05:13:00;;;;;;;511.33;438.50;;;;;;;;;;4948256;29;20731;-79
2021/07/06 05:15:26;;;;;;;512.15;437.67;;;;;;;;;;4929504;29;20027;-80
2021/07/06 05:17:53;;;;;;;510.80;433.85;;;;;;;;;;4936986;29;20113;-83
2021/07/06 05:20:19;;;;;;;511.30;431.17;;;;;;;;;;4936636;29;20142;-84
2021/07/06 05:22:45;;;;;;;513.45;439.65;;;;;;;;;;4935168;29;20055;-77
2021/07/06 05:25:11;;;;;;;513.00;430.80;;;;;;;;;;4924664;29;20032;-83
2021/07/06 05:27:37;;;;;;;510.77;426.23;;;;;;;;;;4921141;29;20472;-80
2021/07/06 05:33:07;;;;;;;513.45;437.67;;;;;;;;;;4953658;29;20038;-81
2021/07/06 05:35:33;;;;;;;516.92;435.67;;;;;;;;;;4935574;29;20110;-80
2021/07/06 05:38:02;;;;;;;525.83;452.92;;;;;;;;;;4939137;29;20034;-82
2021/07/06 05:40:28;;;;;;;519.90;438.60;;;;;;;;;;4953098;29;20111;-79
2021/07/06 05:43:12;;;;;;;521.08;445.02;;;;;;;;;;4940258;29;20086;-80
2021/07/06 05:45:38;;;;;;;524.70;443.80;;;;;;;;;;4937972;28;20062;-84
2021/07/06 05:48:04;;;;;;;514.15;429.27;;;;;;;;;;4936107;29;20027;-77
2021/07/06 05:50:31;;;;;;;516.10;439.00;;;;;;;;;;4954208;29;20026;-84
2021/07/06 05:52:56;;;;;;;510.08;426.80;;;;;;;;;;4920986;29;20403;-79
2021/07/06 05:55:42;;;;;;;517.92;444.60;;;;;;;;;;4939921;29;20038;-87
2021/07/06 05:58:08;;;;;;;515.75;440.23;;;;;;;;;;4952729;29;20049;-83
2021/07/06 06:00:37;;;;;;;515.17;441.13;;;;;;;;;;4937033;29;20027;-82
2021/07/06 06:03:07;;;;;;;518.67;445.63;;;;;;;;;;4928062;29;20672;-80
2021/07/06 06:05:33;;;;;;;514.78;436.25;;;;;;;;;;4937330;29;20031;-81
2021/07/06 06:07:59;;;;;;;517.00;444.38;;;;;;;;;;4934071;29;20035;-78
2021/07/06 06:10:25;;;;;;;516.80;446.02;;;;;;;;;;4936582;29;20109;-81
2021/07/06 06:12:51;;;;;;;519.65;448.05;;;;;;;;;;4940111;29;20027;-78
2021/07/06 06:15:17;;;;;;;517.60;442.98;;;;;;;;;;4940729;29;20027;-82
2021/07/06 06:17:46;;;;;;;523.03;451.77;;;;;;;;;;4951561;28;20427;-79
2021/07/06 06:20:12;;;;;;;518.85;437.48;;;;;;;;;;4941389;29;20090;-82
2021/07/06 06:22:38;;;;;;;523.33;447.90;;;;;;;;;;4938337;29;20031;-84
2021/07/06 06:25:35;;;;;;;519.83;444.23;;;;;;;;;;4940915;29;20083;-80
2021/07/06 06:28:25;;;;;;;517.03;443.95;;;;;;;;;;4955799;29;20382;-83
2021/07/06 06:30:54;;;;;;;513.53;435.60;;;;;;;;;;4948997;29;20502;-81
2021/07/06 06:33:20;;;;;;;517.58;446.73;;;;;;;;;;4958173;28;20023;-79
2021/07/06 06:35:45;;;;;;;513.33;440.00;;;;;;;;;;4949044;28;20042;-80
2021/07/06 06:38:12;;;;;;;519.83;453.27;;;;;;;;;;4940446;29;20557;-88
2021/07/06 06:40:41;;;;;;;519.33;449.85;;;;;;;;;;4939918;29;20125;-79
2021/07/06 06:43:07;;;;;;;518.85;447.05;;;;;;;;;;4948996;29;20386;-82
2021/07/06 06:45:33;;;;;;;523.70;456.25;;;;;;;;;;4940625;29;20034;-80
2021/07/06 06:47:59;;;;;;;520.60;452.45;;;;;;;;;;4958242;29;20028;-81
2021/07/06 06:50:25;;;;;;;521.85;454.90;;;;;;;;;;4941242;29;20027;-81
2021/07/06 06:52:56;;;;;;;519.45;447.33;;;;;;;;;;4941274;29;20466;-83
2021/07/06 06:55:22;;;;;;;518.75;452.75;;;;;;;;;;4944999;29;20023;-82
2021/07/06 06:57:48;;;;;;;514.30;451.73;;;;;;;;;;4940675;29;20108;-83
2021/07/06 07:00:14;;;;;;;511.63;446.00;;;;;;;;;;4957852;28;20031;-84
2021/07/06 07:02:43;;;;;;;510.08;447.00;;;;;;;;;;4952579;29;20059;-80
2021/07/06 07:05:18;;;;;;;512.00;443.02;;;;;;;;;;4940866;29;20030;-89
2021/07/06 07:07:44;;;;;;;512.00;447.08;;;;;;;;;;4957746;29;20023;-81
2021/07/06 07:10:13;;;;;;;517.63;458.55;;;;;;;;;;4957941;29;20045;-81
2021/07/06 07:12:40;;;;;;;515.08;453.33;;;;;;;;;;4936402;29;20561;-78
2021/07/06 07:15:07;;;;;;;512.97;444.77;;;;;;;;;;4940087;29;20118;-83
2021/07/06 07:17:37;;;;;;;510.40;449.13;;;;;;;;;;4940622;29;20075;-83
2021/07/06 07:20:05;;;;;;;515.10;448.53;;;;;;;;;;4940334;29;20031;-81
2021/07/06 07:22:31;;;;;;;554.85;492.83;;;;;;;;;;4956191;28;20259;-81
2021/07/06 07:24:57;;;;;;;555.05;494.08;;;;;;;;;;4957388;29;20035;-81
2021/07/06 07:27:23;;;;;;;534.08;473.77;;;;;;;;;;4940135;29;20031;-82
2021/07/06 07:29:52;;;;;;;530.45;468.02;;;;;;;;;;4940559;29;20027;-86
2021/07/06 07:32:19;;;;;;;535.50;475.77;;;;;;;;;;4940155;29;20049;-84
2021/07/06 07:34:45;;;;;;;547.72;487.23;;;;;;;;;;4940475;29;20027;-80
2021/07/06 07:37:11;;;;;;;787.03;706.78;;;;;;;;;;4939739;29;20687;-82
2021/07/06 07:39:37;;;;;;;564.28;502.27;;;;;;;;;;4936958;29;20472;-79
2021/07/06 07:42:21;;;;;;;576.85;513.10;;;;;;;;;;4937108;29;20353;-83
2021/07/06 07:44:51;;;;;;;612.47;544.30;;;;;;;;;;4950627;29;20035;-85
2021/07/06 07:47:17;;;;;;;551.83;490.73;;;;;;;;;;4957095;29;20019;-79
2021/07/06 07:49:43;;;;;;;609.72;542.10;;;;;;;;;;4957090;29;20035;-81
2021/07/06 07:52:09;;;;;;;572.42;509.60;;;;;;;;;;4957051;29;20030;-81
2021/07/06 07:54:37;;;;;;;568.40;506.23;;;;;;;;;;4936718;29;20031;-82
2021/07/06 07:57:03;;;;;;;557.45;496.65;;;;;;;;;;4947437;29;20047;-86
2021/07/06 07:59:30;;;;;;;547.83;487.92;;;;;;;;;;4939935;29;20089;-81
2021/07/06 08:01:57;;;;;;;576.55;514.22;;;;;;;;;;4939656;29;20119;-81
2021/07/06 08:04:23;;;;;;;563.85;502.55;;;;;;;;;;4938135;29;20079;-81
2021/07/06 08:06:51;;;;;;;563.97;502.50;;;;;;;;;;4933652;29;20031;-90
2021/07/06 08:09:17;;;;;;;563.55;502.00;;;;;;;;;;4934457;29;20031;-78
2021/07/06 08:11:43;;;;;;;566.45;504.77;;;;;;;;;;4934780;29;20035;-83
2021/07/06 08:14:09;;;;;;;557.58;496.67;;;;;;;;;;4938729;29;20102;-89
2021/07/06 08:16:35;;;;;;;546.30;486.42;;;;;;;;;;4921355;29;20184;-84
2021/07/06 08:22:23;;;;;;;537.03;475.10;;;;;;;;;;4946285;29;20078;-81
2021/07/06 08:24:50;;;;;;;537.63;477.13;;;;;;;;;;4938432;29;20035;-80
2021/07/06 08:27:16;;;;;;;540.03;480.55;;;;;;;;;;4939514;29;20050;-85
2021/07/06 08:29:42;;;;;;;541.60;481.92;;;;;;;;;;4936330;29;20608;-82
2021/07/06 08:32:09;;;;;;;539.08;479.60;;;;;;;;;;4939296;29;20027;-82
2021/07/06 08:34:35;;;;;;;552.30;492.27;;;;;;;;;;4935278;29;20036;-84
2021/07/06 08:37:01;;;;;;;547.53;487.83;;;;;;;;;;4933978;29;20042;-79
2021/07/06 08:39:43;;;;;;;548.17;488.52;;;;;;;;;;4935597;29;20038;-86
2021/07/06 08:42:09;;;;;;;551.95;492.15;;;;;;;;;;4937451;29;20031;-79
2021/07/06 08:44:36;;;;;;;552.53;492.80;;;;;;;;;;4939228;29;20032;-80
2021/07/06 08:47:02;;;;;;;551.17;491.73;;;;;;;;;;4938918;29;20031;-85
2021/07/06 08:49:29;;;;;;;565.03;503.95;;;;;;;;;;4956355;29;20038;-83
2021/07/06 08:51:56;;;;;;;543.85;484.08;;;;;;;;;;4935696;29;20026;-80
2021/07/06 08:54:22;;;;;;;532.97;474.00;;;;;;;;;;4919842;29;20130;-83
2021/07/06 08:56:49;;;;;;;536.78;477.30;;;;;;;;;;4934586;29;20047;-81
2021/07/06 08:59:15;;;;;;;547.03;486.00;;;;;;;;;;4934668;29;20035;-89
2021/07/06 09:01:41;;;;;;;540.20;479.67;;;;;;;;;;4928987;29;20034;-86
2021/07/06 09:07:12;;;;;;;564.10;494.30;;;;;;;;;;4949691;29;20030;-80
2021/07/06 09:09:39;;;;;;;545.30;484.73;;;;;;;;;;4955918;29;20035;-85
2021/07/06 09:12:07;;;;;;;552.53;491.67;;;;;;;;;;4954272;29;20115;-86
2021/07/06 09:14:33;;;;;;;562.38;500.85;;;;;;;;;;4938626;29;20410;-80
2021/07/06 09:17:23;;;;;;;870.80;640.58;;;;;;;;;;4938545;29;20028;-79
2021/07/06 09:19:51;;;;;;;584.00;520.25;;;;;;;;;;4935355;29;20031;-85
2021/07/06 09:22:19;;;;;;;556.75;496.58;;;;;;;;;;4942231;29;20042;-82
2021/07/06 09:24:46;;;;;;;836.28;637.38;;;;;;;;;;4936069;29;20038;-88
2021/07/06 09:27:19;;;;;;;542.88;483.70;;;;;;;;;;4937992;29;20019;-79
2021/07/06 09:30:09;;;;;;;558.70;498.38;;;;;;;;;;4935067;29;20066;-83
2021/07/06 09:32:35;;;;;;;;;;;;;;;;;;4919679;29;20476;-77
2021/07/06 09:35:10;;;;;;;551.75;491.52;;;;;;;;;;4946453;29;19914;-80
2021/07/06 09:37:51;;;;;;;556.63;496.35;;;;;;;;;;4954967;29;20126;-79
2021/07/06 09:40:29;;;;;;;570.40;509.92;;;;;;;;;;4937322;29;20035;-83
2021/07/06 09:43:14;;;;;;;586.08;524.83;;;;;;;;;;4949440;29;20507;-79
2021/07/06 09:45:46;;;;;;;585.22;524.13;;;;;;;;;;4934548;29;20838;-85
2021/07/06 09:48:12;;;;;;;589.25;527.92;;;;;;;;;;4921994;29;20062;-87
2021/07/06 09:50:38;;;;;;;608.35;546.20;;;;;;;;;;4937660;29;20019;-90
2021/07/06 09:53:04;;;;;;;625.47;562.67;;;;;;;;;;4937961;29;20031;-84
2021/07/06 09:55:31;;;;;;;634.22;571.63;;;;;;;;;;4937374;29;20059;-81
2021/07/06 09:57:58;;;;;;;641.22;578.33;;;;;;;;;;4934665;29;20052;-82
2021/07/06 10:00:24;;;;;;;641.78;578.80;;;;;;;;;;4951100;29;20050;-88
2021/07/06 10:02:59;;;;;;;634.83;572.35;;;;;;;;;;4938171;29;20023;-85
2021/07/06 10:05:25;;;;;;;643.72;579.70;;;;;;;;;;4954937;29;20386;-82
2021/07/06 10:08:13;;;;;;;622.28;559.08;;;;;;;;;;4954992;29;20034;-80
2021/07/06 10:10:39;;;;;;;653.08;586.60;;;;;;;;;;4933175;29;20100;-82
2021/07/06 10:13:05;;;;;;;633.25;568.42;;;;;;;;;;4935605;29;20051;-80
2021/07/06 10:15:31;;;;;;;600.55;539.58;;;;;;;;;;4918709;29;20518;-83
2021/07/06 10:17:58;;;;;;;596.28;536.45;;;;;;;;;;4928814;29;20024;-80
2021/07/06 10:20:40;;;;;;;593.08;533.17;;;;;;;;;;4952596;29;20028;-79
2021/07/06 10:23:06;;;;;;;573.28;513.97;;;;;;;;;;4937687;29;20476;-81
2021/07/06 10:25:34;;;;;;;582.05;522.03;;;;;;;;;;4937178;29;20027;-83
2021/07/06 10:28:04;;;;;;;578.83;519.03;;;;;;;;;;4954740;29;20036;-80
2021/07/06 10:30:33;;;;;;;625.75;562.90;;;;;;;;;;4954732;29;20019;-82
2021/07/06 10:33:31;;;;;;;679.63;613.13;;;;;;;;;;4954613;29;20031;-80
2021/07/06 10:35:58;;;;;;;732.00;662.60;;;;;;;;;;4937726;29;20027;-82
2021/07/06 10:38:30;;;;;;;686.05;621.67;;;;;;;;;;4954265;29;20135;-86
2021/07/06 10:40:57;;;;;;;781.60;709.85;;;;;;;;;;4953140;29;20475;-78
2021/07/06 10:43:43;;;;;;;781.25;708.60;;;;;;;;;;4937275;29;20122;-83
2021/07/06 10:46:25;;;;;;;869.70;788.00;;;;;;;;;;4937141;29;20027;-84
2021/07/06 10:48:57;;;;;;;923.38;838.22;;;;;;;;;;4954461;29;20487;-81
2021/07/06 10:51:39;;;;;;;935.42;798.88;;;;;;;;;;4934318;29;20128;-82
2021/07/06 10:54:27;;;;;;;676.78;611.38;;;;;;;;;;4942476;29;20039;-81
2021/07/06 10:56:55;;;;;;;660.08;596.67;;;;;;;;;;4937211;29;20447;-83
2021/07/06 10:59:24;;;;;;;664.13;600.40;;;;;;;;;;4940668;29;20023;-82
2021/07/06 11:01:52;;;;;;;645.90;583.03;;;;;;;;;;4940557;29;20414;-83
2021/07/06 11:07:36;;;;;;;630.30;568.42;;;;;;;;;;4917382;29;20074;-78
2021/07/06 11:10:03;;;;;;;656.05;593.00;;;;;;;;;;4934522;29;20034;-84
2021/07/06 11:12:35;;;;;;;671.03;606.67;;;;;;;;;;4939250;29;20027;-80
2021/07/06 11:15:03;;;;;;;657.60;593.72;;;;;;;;;;4957379;29;20459;-81
2021/07/06 11:23:37;;;;;;;601.63;538.80;;;;;;;;;;4938576;29;20062;-81
2021/07/06 11:26:04;;;;;;;626.00;560.38;;;;;;;;;;4937214;29;20122;-80
2021/07/06 11:28:30;;;;;;;607.25;543.50;;;;;;;;;;4955023;29;20030;-82
2021/07/06 11:30:59;;;;;;;618.45;554.42;;;;;;;;;;4940091;29;20031;-77
2021/07/06 11:33:40;;;;;;;627.03;564.90;;;;;;;;;;4940008;29;20023;-83
2021/07/06 11:36:22;;;;;;;649.38;587.25;;;;;;;;;;4940290;29;20027;-81
2021/07/06 11:38:49;;;;;;;649.75;588.28;;;;;;;;;;4940115;29;20126;-79
2021/07/06 11:41:17;;;;;;;681.10;618.58;;;;;;;;;;4922516;29;20031;-83
2021/07/06 11:44:07;;;;;;;970.85;867.13;;;;;;;;;;4940165;29;20031;-84
2021/07/06 11:46:33;;;;;;;;;;;;;;;;;;4939760;29;20090;-81
2021/07/06 11:49:01;;;;;;;791.88;660.08;;;;;;;;;;4939922;29;19910;-84
2021/07/06 11:51:27;;;;;;;697.35;629.58;;;;;;;;;;4956636;29;20074;-79
2021/07/06 11:53:53;;;;;;;700.70;633.15;;;;;;;;;;4940058;29;20135;-86
2021/07/06 11:56:37;;;;;;;697.55;629.47;;;;;;;;;;4939987;29;20474;-80
2021/07/06 11:59:09;;;;;;;709.72;641.97;;;;;;;;;;4936937;29;20036;-77
2021/07/06 12:01:35;;;;;;;747.15;677.92;;;;;;;;;;4935164;29;20566;-79
2021/07/06 12:04:01;;;;;;;766.17;696.10;;;;;;;;;;4939665;29;20054;-80
2021/07/06 12:06:30;;;;;;;805.28;731.47;;;;;;;;;;4939513;29;20028;-80
2021/07/06 12:08:56;;;;;;;;;;;;;;;;;;4957337;28;20026;-85
2021/07/06 12:11:22;;;;;;;735.25;662.45;;;;;;;;;;4938547;29;19907;-81
2021/07/06 12:13:53;;;;;;;746.88;673.28;;;;;;;;;;4956489;29;20147;-85
2021/07/06 12:16:22;;;;;;;776.15;700.15;;;;;;;;;;4936429;29;20039;-81
2021/07/06 12:18:54;;;;;;;774.90;698.00;;;;;;;;;;4939491;29;20027;-81
2021/07/06 12:21:25;;;;;;;796.72;718.08;;;;;;;;;;4939467;29;20039;-82
2021/07/06 12:23:51;;;;;;;779.95;701.40;;;;;;;;;;4949579;29;20028;-79
2021/07/06 12:26:18;;;;;;;807.67;726.75;;;;;;;;;;4936351;29;20028;-79
2021/07/06 12:28:44;;;;;;;841.20;757.65;;;;;;;;;;4939165;29;20035;-79
2021/07/06 12:31:17;;;;;;;1140.07;999.90;;;;;;;;;;4905071;29;20036;-81
2021/07/06 12:33:44;;;;;;;783.78;704.20;;;;;;;;;;4881944;29;20032;-82
2021/07/06 12:36:10;;;;;;;808.38;727.03;;;;;;;;;;4897421;29;20043;-85
2021/07/06 12:38:36;;;;;;;956.97;864.75;;;;;;;;;;4912465;29;20485;-78
2021/07/06 12:41:30;;;;;;;947.08;856.05;;;;;;;;;;4912044;29;20044;-81
2021/07/06 12:43:57;;;;;;;918.92;830.13;;;;;;;;;;4908601;29;20039;-80
2021/07/06 12:46:26;;;;;;;1084.20;983.13;;;;;;;;;;4916448;29;20052;-83
2021/07/06 12:48:52;;;;;;;1148.75;999.90;;;;;;;;;;4916058;29;20040;-83
2021/07/06 12:51:36;;;;;;;1051.13;952.42;;;;;;;;;;4904003;29;20048;-87
2021/07/06 12:54:06;;;;;;;1128.13;999.90;;;;;;;;;;4881898;29;20549;-78
2021/07/06 12:56:33;;;;;;;1159.85;999.90;;;;;;;;;;4881572;29;20601;-82
2021/07/06 12:59:17;;;;;;;1128.22;999.90;;;;;;;;;;4892907;29;20100;-79
2021/07/06 13:02:08;;;;;;;1011.05;914.70;;;;;;;;;;4890834;29;20036;-85
2021/07/06 13:04:54;;;;;;;980.53;886.40;;;;;;;;;;4920728;29;20118;-87
2021/07/06 13:07:20;;;;;;;1048.32;948.70;;;;;;;;;;4949681;29;20053;-81
2021/07/06 13:10:08;;;;;;;1138.57;999.90;;;;;;;;;;4939743;29;20131;-83
2021/07/06 13:12:53;;;;;;;1050.88;950.72;;;;;;;;;;4954352;29;20023;-81
2021/07/06 13:15:19;;;;;;;731.90;377.40;;;;;;;;;;4944457;29;20586;-78
2021/07/06 13:17:46;;;;;;;938.80;847.03;;;;;;;;;;4943584;29;20031;-79
2021/07/06 13:20:15;;;;;;;1017.58;920.30;;;;;;;;;;4938289;29;20028;-87
2021/07/06 13:22:42;;;;;;;1069.35;967.88;;;;;;;;;;4938465;29;20031;-80
2021/07/06 13:25:28;;;;;;;1126.20;999.90;;;;;;;;;;4937957;29;20031;-82
2021/07/06 13:28:00;;;;;;;1284.75;999.90;;;;;;;;;;4937333;29;20054;-80
2021/07/06 13:30:34;;;;;;;1195.43;999.90;;;;;;;;;;4945571;29;20465;-84
2021/07/06 13:33:02;;;;;;;1235.45;999.90;;;;;;;;;;4937083;29;20078;-83
2021/07/06 13:35:47;;;;;;;710.05;380.98;;;;;;;;;;4938449;29;20487;-87
2021/07/06 13:38:15;;;;;;;1092.75;988.10;;;;;;;;;;4955164;29;20039;-85
2021/07/06 13:40:41;;;;;;;743.95;488.90;;;;;;;;;;4934378;29;20106;-82
2021/07/06 13:43:07;;;;;;;952.53;861.20;;;;;;;;;;4937526;29;20042;-83
2021/07/06 13:45:33;;;;;;;1037.32;940.47;;;;;;;;;;4954659;29;20031;-81
2021/07/06 13:48:01;;;;;;;1154.45;999.90;;;;;;;;;;4937798;29;20027;-77
2021/07/06 13:50:27;;;;;;;1248.35;999.90;;;;;;;;;;4937335;29;20062;-83
2021/07/06 13:52:54;;;;;;;686.17;469.13;;;;;;;;;;4937222;29;20019;-77
2021/07/06 13:55:37;;;;;;;691.70;621.22;;;;;;;;;;4954554;29;20054;-77
2021/07/06 14:01:20;;;;;;;620.35;556.55;;;;;;;;;;4955078;29;20602;-79
2021/07/06 14:03:46;;;;;;;612.97;549.53;;;;;;;;;;4954494;29;20484;-82
2021/07/06 14:06:15;;;;;;;623.47;558.70;;;;;;;;;;4933870;29;20040;-82
2021/07/06 14:09:15;;;;;;;635.10;569.20;;;;;;;;;;4944538;29;20024;-80
2021/07/06 14:11:41;;;;;;;624.22;558.75;;;;;;;;;;4933774;29;20114;-83
2021/07/06 14:14:07;;;;;;;668.78;599.72;;;;;;;;;;4934753;29;20081;-85
2021/07/06 14:16:33;;;;;;;641.25;573.88;;;;;;;;;;4937493;29;20391;-82
2021/07/06 14:18:59;;;;;;;614.65;548.78;;;;;;;;;;4937815;29;20023;-79
2021/07/06 14:21:44;;;;;;;580.67;517.88;;;;;;;;;;4937477;29;20685;-81
2021/07/06 14:24:10;;;;;;;571.00;508.75;;;;;;;;;;4954329;29;20039;-80
2021/07/06 14:26:36;;;;;;;568.65;505.95;;;;;;;;;;4935779;29;20124;-80
2021/07/06 14:29:02;;;;;;;792.90;711.47;;;;;;;;;;4943570;29;20031;-84
2021/07/06 14:31:28;;;;;;;618.45;551.00;;;;;;;;;;4937607;28;20391;-79
2021/07/06 14:34:03;;;;;;;611.08;544.90;;;;;;;;;;4940369;29;20024;-80
2021/07/06 14:36:29;;;;;;;604.60;538.90;;;;;;;;;;4958849;29;20024;-83
2021/07/06 14:38:55;;;;;;;594.42;529.88;;;;;;;;;;4941041;29;20030;-85
2021/07/06 14:41:21;;;;;;;589.85;526.00;;;;;;;;;;4936802;29;20163;-86
2021/07/06 14:43:47;;;;;;;587.92;524.53;;;;;;;;;;4938159;29;20020;-79